createdAt,value
2017-08-12T00:00:13.356Z,13.27
2017-08-12T00:02:40.746Z,12.50
2017-08-12T00:05:08.159Z,14.70
2017-08-12T00:07:35.559Z,16.03
2017-08-12T00:10:02.979Z,17.23
2017-08-12T00:12:30.368Z,12.40
2017-08-12T00:14:57.769Z,15.40
2017-08-12T00:17:25.166Z,16.53
2017-08-12T00:19:52.582Z,15.47
2017-08-12T00:22:19.979Z,12.73
2017-08-12T00:24:47.410Z,15.70
2017-08-12T00:27:14.806Z,14.53
2017-08-12T00:29:42.217Z,13.50
2017-08-12T00:32:09.619Z,21.80
2017-08-12T00:34:37.014Z,13.90
2017-08-12T00:37:04.438Z,22.90
2017-08-12T00:39:31.835Z,17.90
2017-08-12T00:41:59.242Z,18.50
2017-08-12T00:44:26.629Z,18.17
2017-08-12T00:46:54.062Z,18.50
2017-08-12T00:49:21.463Z,18.43
2017-08-12T00:51:48.858Z,23.93
2017-08-12T00:54:16.266Z,23.60
2017-08-12T00:56:43.658Z,27.90
2017-08-12T00:59:11.051Z,23.90
2017-08-12T01:01:38.452Z,23.70
2017-08-12T01:04:05.850Z,22.03
2017-08-12T01:06:33.459Z,32.63
2017-08-12T01:09:00.863Z,30.07
2017-08-12T01:11:28.259Z,31.93
2017-08-12T01:13:55.667Z,19.80
2017-08-12T01:16:23.070Z,20.60
2017-08-12T01:18:50.466Z,20.40
2017-08-12T01:21:17.870Z,16.20
2017-08-12T01:23:45.277Z,21.60
2017-08-12T01:26:12.986Z,14.60
2017-08-12T01:28:40.378Z,16.90
2017-08-12T01:31:07.783Z,17.27
2017-08-12T01:33:35.189Z,12.80
2017-08-12T01:36:02.591Z,12.60
2017-08-12T01:38:29.984Z,17.90
2017-08-12T01:40:57.388Z,20.13
2017-08-12T01:43:24.779Z,15.27
2017-08-12T01:45:52.178Z,14.30
2017-08-12T01:48:19.581Z,19.00
2017-08-12T01:50:46.986Z,17.37
2017-08-12T01:53:14.375Z,15.40
2017-08-12T01:55:41.782Z,21.33
2017-08-12T01:58:09.175Z,22.20
2017-08-12T02:00:36.589Z,18.53
2017-08-12T02:03:03.987Z,17.43
2017-08-12T02:05:31.398Z,19.00
2017-08-12T02:07:58.795Z,21.10
2017-08-12T02:10:26.191Z,17.23
2017-08-12T02:12:53.595Z,21.10
2017-08-12T02:15:20.986Z,18.90
2017-08-12T02:17:48.393Z,20.33
2017-08-12T02:20:15.791Z,24.13
2017-08-12T02:22:43.210Z,25.00
2017-08-12T02:25:10.610Z,32.93
2017-08-12T02:27:38.014Z,20.90
2017-08-12T02:30:05.412Z,21.30
2017-08-12T02:32:32.828Z,29.93
2017-08-12T02:35:00.223Z,24.63
2017-08-12T02:37:27.626Z,23.03
2017-08-12T02:39:55.031Z,31.17
2017-08-12T02:42:22.428Z,25.83
2017-08-12T02:44:49.843Z,27.27
2017-08-12T02:47:17.458Z,23.70
2017-08-12T02:49:44.862Z,26.50
2017-08-12T02:52:12.271Z,25.33
2017-08-12T02:54:39.670Z,23.90
2017-08-12T02:57:07.068Z,25.37
2017-08-12T02:59:34.475Z,25.27
2017-08-12T03:02:02.151Z,37.23
2017-08-12T03:04:29.559Z,22.60
2017-08-12T03:06:56.950Z,28.80
2017-08-12T03:09:24.359Z,21.50
2017-08-12T03:11:51.965Z,23.70
2017-08-12T03:14:19.390Z,32.40
2017-08-12T03:16:46.788Z,32.40
2017-08-12T03:19:14.176Z,34.60
2017-08-12T03:21:41.577Z,26.63
2017-08-12T03:24:09.186Z,35.30
2017-08-12T03:26:36.582Z,36.27
2017-08-12T03:29:03.978Z,40.40
2017-08-12T03:31:31.383Z,41.30
2017-08-12T03:33:58.774Z,39.27
2017-08-12T03:36:26.202Z,34.97
2017-08-12T03:38:53.598Z,35.83
2017-08-12T03:41:21.004Z,46.00
2017-08-12T03:43:48.399Z,41.60
2017-08-12T03:46:15.798Z,47.23
2017-08-12T03:48:43.204Z,40.57
2017-08-12T03:51:10.611Z,44.27
2017-08-12T03:53:38.012Z,49.37
2017-08-12T03:56:05.426Z,41.10
2017-08-12T03:58:32.809Z,50.30
2017-08-12T04:01:00.215Z,49.60
2017-08-12T04:03:27.616Z,50.50
2017-08-12T04:05:55.029Z,41.93
2017-08-12T04:08:22.426Z,43.60
2017-08-12T04:10:49.831Z,53.93
2017-08-12T04:13:17.231Z,43.30
2017-08-12T04:15:44.650Z,45.80
2017-08-12T04:18:12.255Z,40.97
2017-08-12T04:20:39.663Z,44.10
2017-08-12T04:23:07.060Z,47.57
2017-08-12T04:25:34.686Z,34.33
2017-08-12T04:28:02.087Z,41.63
2017-08-12T04:30:29.495Z,38.20
2017-08-12T04:32:56.886Z,37.80
2017-08-12T04:35:24.304Z,36.47
2017-08-12T04:37:51.721Z,36.00
2017-08-12T04:40:19.126Z,32.33
2017-08-12T04:42:46.527Z,32.37
2017-08-12T04:45:13.928Z,29.13
2017-08-12T04:47:41.330Z,28.97
2017-08-12T04:50:08.736Z,32.93
2017-08-12T04:52:36.139Z,31.80
2017-08-12T04:55:03.831Z,40.20
2017-08-12T04:57:31.270Z,35.37
2017-08-12T04:59:58.769Z,37.60
2017-08-12T05:02:26.171Z,34.87
2017-08-12T05:04:53.564Z,31.13
2017-08-12T05:07:20.966Z,43.37
2017-08-12T05:09:48.366Z,29.70
2017-08-12T05:12:15.771Z,32.63
2017-08-12T05:14:43.164Z,36.47
2017-08-12T05:17:10.566Z,34.60
2017-08-12T05:19:37.962Z,34.47
2017-08-12T05:22:05.366Z,30.13
2017-08-12T05:24:32.767Z,36.63
2017-08-12T05:27:00.158Z,40.30
2017-08-12T05:29:27.555Z,35.30
2017-08-12T05:31:54.938Z,36.07
2017-08-12T05:34:22.351Z,38.17
2017-08-12T05:36:49.746Z,33.00
2017-08-12T05:39:17.151Z,34.57
2017-08-12T05:41:44.552Z,32.97
2017-08-12T05:44:11.979Z,31.07
2017-08-12T05:46:39.371Z,31.00
2017-08-12T05:49:06.790Z,37.10
2017-08-12T05:51:34.176Z,30.40
2017-08-12T05:54:01.575Z,30.30
2017-08-12T05:56:29.231Z,27.47
2017-08-12T05:58:56.627Z,29.90
2017-08-12T06:01:24.018Z,30.50
2017-08-12T06:03:51.699Z,22.60
2017-08-12T06:06:19.095Z,27.23
2017-08-12T06:08:46.511Z,32.97
2017-08-12T06:11:13.907Z,27.97
2017-08-12T06:13:41.350Z,23.37
2017-08-12T06:16:08.738Z,24.23
2017-08-12T06:18:36.141Z,31.53
2017-08-12T06:21:03.526Z,31.13
2017-08-12T06:23:30.934Z,22.70
2017-08-12T06:26:00.965Z,25.67
2017-08-12T06:28:28.368Z,32.67
2017-08-12T06:30:55.771Z,25.10
2017-08-12T06:33:27.174Z,25.83
2017-08-12T06:35:55.272Z,30.27
2017-08-12T06:38:22.799Z,26.33
2017-08-12T06:40:50.194Z,26.93
2017-08-12T06:43:17.591Z,24.50
2017-08-12T06:45:44.996Z,24.57
2017-08-12T06:48:12.395Z,24.97
2017-08-12T06:50:39.803Z,26.73
2017-08-12T06:53:07.216Z,32.70
2017-08-12T06:55:34.606Z,34.53
2017-08-12T06:58:02.006Z,29.83
2017-08-12T07:00:29.409Z,26.97
2017-08-12T07:02:56.810Z,28.90
2017-08-12T07:05:24.202Z,29.90
2017-08-12T07:07:51.628Z,29.17
2017-08-12T07:10:19.025Z,26.43
2017-08-12T07:12:46.420Z,32.03
2017-08-12T07:15:13.835Z,24.93
2017-08-12T07:17:41.226Z,33.90
2017-08-12T07:20:08.630Z,33.37
2017-08-12T07:22:36.037Z,35.27
2017-08-12T07:25:03.437Z,30.53
2017-08-12T07:27:30.834Z,35.50
2017-08-12T07:29:58.234Z,31.90
2017-08-12T07:32:25.759Z,29.77
2017-08-12T07:34:53.163Z,38.37
2017-08-12T07:37:20.591Z,42.53
2017-08-12T07:39:47.975Z,36.33
2017-08-12T07:42:15.377Z,38.50
2017-08-12T07:44:42.798Z,29.90
2017-08-12T07:47:10.199Z,34.77
2017-08-12T07:49:37.594Z,32.27
2017-08-12T07:52:05.022Z,38.03
2017-08-12T07:54:32.416Z,31.93
2017-08-12T07:57:00.541Z,43.90
2017-08-12T07:59:28.309Z,36.13
2017-08-12T08:01:55.727Z,52.97
2017-08-12T08:04:23.119Z,44.43
2017-08-12T08:06:49.805Z,27.17
2017-08-12T08:09:17.209Z,40.07
2017-08-12T08:11:44.602Z,43.33
2017-08-12T08:14:11.998Z,37.23
2017-08-12T08:16:39.399Z,54.60
2017-08-12T08:19:06.793Z,46.30
2017-08-12T08:21:34.190Z,29.93
2017-08-12T08:24:01.599Z,48.13
2017-08-12T08:26:28.982Z,53.73
2017-08-12T08:28:56.386Z,36.30
2017-08-12T08:31:23.782Z,14.70
2017-08-12T08:33:51.182Z,16.13
2017-08-12T08:36:18.614Z,19.30
2017-08-12T08:38:46.050Z,34.93
2017-08-12T08:41:13.445Z,26.90
2017-08-12T08:43:40.858Z,44.50
2017-08-12T08:46:08.250Z,38.23
2017-08-12T08:48:35.698Z,42.33
2017-08-12T08:51:03.082Z,38.40
2017-08-12T08:53:30.496Z,33.93
2017-08-12T08:55:57.878Z,33.67
2017-08-12T08:58:25.274Z,45.07
2017-08-12T09:00:52.686Z,34.77
2017-08-12T09:03:20.090Z,39.97
2017-08-12T09:05:47.482Z,38.23
2017-08-12T09:08:14.882Z,41.60
2017-08-12T09:10:42.494Z,37.50
2017-08-12T09:13:09.902Z,39.40
2017-08-12T09:15:37.301Z,45.23
2017-08-12T09:18:04.710Z,44.07
2017-08-12T09:20:32.111Z,39.57
2017-08-12T09:22:59.511Z,32.37
2017-08-12T09:25:26.902Z,42.07
2017-08-12T09:27:54.298Z,37.70
2017-08-12T09:30:21.694Z,44.83
2017-08-12T09:32:49.131Z,43.17
2017-08-12T09:35:16.523Z,39.77
2017-08-12T09:37:43.925Z,51.97
2017-08-12T09:40:11.334Z,38.73
2017-08-12T09:42:38.730Z,49.20
2017-08-12T09:45:06.143Z,56.10
2017-08-12T09:47:33.530Z,47.70
2017-08-12T09:50:00.942Z,37.97
2017-08-12T09:52:28.342Z,51.63
2017-08-12T09:54:55.758Z,49.23
2017-08-12T09:57:23.155Z,48.53
2017-08-12T09:59:50.563Z,41.53
2017-08-12T10:02:18.169Z,54.97
2017-08-12T10:04:45.574Z,52.37
2017-08-12T10:07:12.969Z,42.97
2017-08-12T10:09:40.382Z,41.83
2017-08-12T10:12:07.770Z,29.97
2017-08-12T10:14:35.463Z,34.23
2017-08-12T10:17:02.885Z,27.77
2017-08-12T10:19:30.314Z,38.07
2017-08-12T10:21:57.711Z,28.13
2017-08-12T10:24:25.245Z,41.70
2017-08-12T10:26:52.651Z,32.00
2017-08-12T10:29:20.047Z,31.43
2017-08-12T10:31:47.667Z,38.27
2017-08-12T10:34:15.075Z,31.93
2017-08-12T10:36:42.462Z,28.37
2017-08-12T10:39:09.887Z,29.30
2017-08-12T10:44:11.046Z,29.40
2017-08-12T10:46:38.451Z,33.63
2017-08-12T10:49:05.839Z,32.50
2017-08-12T10:51:33.259Z,29.83
2017-08-12T10:54:00.658Z,27.73
2017-08-12T10:56:28.101Z,27.60
2017-08-12T10:58:55.684Z,32.57
2017-08-12T11:01:23.079Z,33.37
2017-08-12T11:03:50.481Z,25.93
2017-08-12T11:06:17.899Z,30.63
2017-08-12T11:08:45.489Z,28.13
2017-08-12T11:11:12.886Z,23.63
2017-08-12T11:13:40.310Z,22.90
2017-08-12T11:16:07.931Z,22.53
2017-08-12T11:18:35.351Z,22.20
2017-08-12T11:21:02.762Z,19.03
2017-08-12T11:23:30.152Z,21.47
2017-08-12T11:25:57.554Z,18.83
2017-08-12T11:28:24.949Z,21.50
2017-08-12T11:30:52.355Z,19.67
2017-08-12T11:33:19.751Z,17.17
2017-08-12T11:35:47.155Z,11.70
2017-08-12T11:38:14.549Z,17.40
2017-08-12T11:40:41.951Z,11.63
2017-08-12T11:43:09.348Z,13.90
2017-08-12T11:45:36.829Z,12.43
2017-08-12T11:48:04.215Z,12.63
2017-08-12T11:50:31.611Z,7.63
2017-08-12T11:52:59.863Z,8.43
2017-08-12T11:55:27.272Z,8.73
2017-08-12T11:57:54.659Z,8.40
2017-08-12T12:00:22.052Z,9.70
2017-08-12T12:02:49.456Z,8.30
2017-08-12T12:05:16.859Z,9.27
2017-08-12T12:07:44.266Z,13.00
2017-08-12T12:10:11.875Z,8.47
2017-08-12T12:12:39.280Z,11.33
2017-08-12T12:15:06.665Z,8.93
2017-08-12T12:17:34.048Z,8.90
2017-08-12T12:20:01.445Z,7.90
2017-08-12T12:22:28.860Z,10.03
2017-08-12T12:24:56.244Z,8.17
2017-08-12T12:27:23.630Z,5.67
2017-08-12T12:29:51.035Z,6.77
2017-08-12T12:32:18.418Z,6.50
2017-08-12T12:34:45.819Z,14.70
2017-08-12T12:37:13.228Z,7.93
2017-08-12T12:39:40.635Z,6.10
2017-08-12T12:42:08.298Z,4.93
2017-08-12T12:47:03.742Z,6.47
2017-08-12T12:49:31.143Z,8.23
2017-08-12T12:51:58.538Z,18.67
2017-08-12T12:54:26.080Z,4.87
2017-08-12T12:56:53.488Z,5.00
2017-08-12T12:59:20.859Z,3.87
2017-08-12T13:01:48.250Z,5.67
2017-08-12T13:04:15.642Z,5.40
2017-08-12T13:06:43.034Z,4.07
2017-08-12T13:09:10.453Z,5.17
2017-08-12T13:11:37.830Z,4.27
2017-08-12T13:14:05.440Z,4.23
2017-08-12T13:16:32.831Z,4.30
2017-08-12T13:19:00.214Z,5.40
2017-08-12T13:21:27.615Z,4.43
2017-08-12T13:23:55.038Z,4.40
2017-08-12T13:26:22.431Z,4.87
2017-08-12T13:28:49.823Z,4.23
2017-08-12T13:31:17.231Z,4.30
2017-08-12T13:33:44.611Z,4.67
2017-08-12T13:36:11.995Z,4.53
2017-08-12T13:38:39.382Z,4.60
2017-08-12T13:41:06.784Z,3.90
2017-08-12T13:43:34.182Z,4.80
2017-08-12T13:46:01.623Z,4.57
2017-08-12T13:48:29.015Z,4.53
2017-08-12T13:50:56.590Z,5.83
2017-08-12T13:53:23.978Z,5.87
2017-08-12T13:55:51.371Z,6.00
2017-08-12T13:58:18.971Z,6.40
2017-08-12T14:00:46.387Z,7.63
2017-08-12T14:03:13.776Z,8.27
2017-08-12T14:05:41.162Z,8.00
2017-08-12T14:08:08.562Z,10.50
2017-08-12T14:10:35.952Z,9.60
2017-08-12T14:13:03.431Z,8.63
2017-08-12T14:15:30.843Z,8.97
2017-08-12T14:17:58.247Z,9.43
2017-08-12T14:20:25.851Z,10.53
2017-08-12T14:22:53.262Z,10.70
2017-08-12T14:25:20.664Z,10.00
2017-08-12T14:27:48.071Z,9.23
2017-08-12T14:30:15.462Z,10.50
2017-08-12T14:32:42.867Z,9.87
2017-08-12T14:35:10.270Z,10.00
2017-08-12T14:37:37.664Z,10.27
2017-08-12T14:40:05.055Z,10.50
2017-08-12T14:42:32.456Z,12.10
2017-08-12T14:44:59.854Z,11.10
2017-08-12T14:47:27.254Z,11.60
2017-08-12T14:49:54.654Z,12.87
2017-08-12T14:52:22.053Z,14.47
2017-08-12T14:54:49.459Z,14.00
2017-08-12T14:57:16.858Z,18.10
2017-08-12T14:59:44.257Z,18.30
2017-08-12T15:02:11.659Z,20.73
2017-08-12T15:04:39.076Z,18.60
2017-08-12T15:07:06.476Z,16.60
2017-08-12T15:09:33.883Z,15.13
2017-08-12T15:12:01.291Z,15.47
2017-08-12T15:14:28.688Z,15.27
2017-08-12T15:16:56.080Z,15.60
2017-08-12T15:19:23.488Z,15.50
2017-08-12T15:21:50.879Z,18.20
2017-08-12T15:24:18.287Z,23.73
2017-08-12T15:26:45.687Z,15.30
2017-08-12T15:29:13.090Z,17.27
2017-08-12T15:31:40.496Z,17.30
2017-08-12T15:34:07.896Z,17.13
2017-08-12T15:36:35.300Z,15.33
2017-08-12T15:39:02.703Z,18.10
2017-08-12T15:41:30.111Z,20.03
2017-08-12T15:43:57.504Z,18.17
2017-08-12T15:49:03.856Z,20.93
2017-08-12T15:51:31.247Z,18.20
2017-08-12T15:53:58.646Z,17.57
2017-08-12T15:56:26.049Z,19.00
2017-08-12T15:58:53.454Z,14.67
2017-08-12T16:01:20.858Z,19.90
2017-08-12T16:03:48.269Z,17.23
2017-08-12T16:06:15.662Z,16.97
2017-08-12T16:08:43.058Z,17.50
2017-08-12T16:11:10.666Z,16.50
2017-08-12T16:13:38.072Z,16.43
2017-08-12T16:16:05.463Z,18.30
2017-08-12T16:18:32.878Z,16.47
2017-08-12T16:21:00.290Z,17.30
2017-08-12T16:23:27.758Z,16.87
2017-08-12T16:25:55.151Z,18.00
2017-08-12T16:28:22.572Z,20.47
2017-08-12T16:30:50.175Z,17.70
2017-08-12T16:33:17.583Z,17.30
2017-08-12T16:35:45.195Z,23.37
2017-08-12T16:38:12.605Z,19.10
2017-08-12T16:40:40.006Z,18.00
2017-08-12T16:43:07.408Z,19.93
2017-08-12T16:45:34.840Z,20.43
2017-08-12T16:48:02.235Z,20.20
2017-08-12T16:50:29.844Z,22.60
2017-08-12T16:52:57.239Z,18.53
2017-08-12T16:55:24.670Z,16.10
2017-08-12T16:57:52.078Z,17.50
2017-08-12T17:00:19.923Z,20.90
2017-08-12T17:02:47.323Z,18.77
2017-08-12T17:05:14.734Z,19.13
2017-08-12T17:07:42.115Z,20.03
2017-08-12T17:10:09.523Z,26.23
2017-08-12T17:12:36.915Z,20.57
2017-08-12T17:15:04.334Z,17.53
2017-08-12T17:17:31.746Z,16.30
2017-08-12T17:19:59.147Z,18.23
2017-08-12T17:22:26.551Z,16.03
2017-08-12T17:24:53.962Z,16.00
2017-08-12T17:27:21.367Z,16.90
2017-08-12T17:29:48.767Z,14.00
2017-08-12T17:32:16.162Z,14.37
2017-08-12T17:34:43.559Z,16.37
2017-08-12T17:37:10.959Z,13.67
2017-08-12T17:39:38.358Z,13.53
2017-08-12T17:42:05.769Z,15.90
2017-08-12T17:44:33.162Z,14.03
2017-08-12T17:47:00.579Z,13.27
2017-08-12T17:49:27.971Z,14.23
2017-08-12T17:51:55.367Z,14.17
2017-08-12T17:54:22.775Z,13.90
2017-08-12T17:56:50.262Z,19.30
2017-08-12T17:59:17.666Z,11.80
2017-08-12T18:01:45.073Z,12.83
2017-08-12T18:04:12.467Z,13.00
2017-08-12T18:06:39.874Z,10.83
2017-08-12T18:09:07.279Z,16.13
2017-08-12T18:11:34.679Z,11.73
2017-08-12T18:14:02.080Z,10.43
2017-08-12T18:16:29.487Z,9.03
2017-08-12T18:18:56.867Z,8.27
2017-08-12T18:21:24.328Z,9.83
2017-08-12T18:23:51.706Z,10.67
2017-08-12T18:26:19.091Z,9.67
2017-08-12T18:28:46.490Z,12.43
2017-08-12T18:31:13.881Z,9.20
2017-08-12T18:33:41.278Z,9.50
2017-08-12T18:36:08.661Z,8.43
2017-08-12T18:38:36.050Z,9.70
2017-08-12T18:41:03.460Z,9.40
2017-08-12T18:43:30.863Z,9.63
2017-08-12T18:45:58.250Z,11.50
2017-08-12T18:48:25.883Z,12.03
2017-08-12T18:50:53.259Z,8.00
2017-08-12T18:53:20.659Z,8.17
2017-08-12T18:55:48.050Z,9.50
2017-08-12T18:58:15.439Z,6.90
2017-08-12T19:00:42.831Z,7.40
2017-08-12T19:03:10.430Z,9.13
2017-08-12T19:05:37.826Z,9.33
2017-08-12T19:08:05.231Z,7.27
2017-08-12T19:10:32.631Z,7.83
2017-08-12T19:13:00.025Z,7.20
2017-08-12T19:15:27.414Z,7.03
2017-08-12T19:17:54.802Z,7.07
2017-08-12T19:20:22.191Z,8.33
2017-08-12T19:22:49.589Z,8.27
2017-08-12T19:25:17.014Z,7.70
2017-08-12T19:27:44.399Z,8.73
2017-08-12T19:30:12.783Z,6.77
2017-08-12T19:32:40.170Z,7.70
2017-08-12T19:35:07.556Z,7.30
2017-08-12T19:37:34.946Z,7.87
2017-08-12T19:40:02.351Z,11.87
2017-08-12T19:42:29.734Z,8.20
2017-08-12T19:44:57.137Z,8.40
2017-08-12T19:47:24.520Z,8.27
2017-08-12T19:49:51.916Z,8.33
2017-08-12T19:52:19.335Z,15.10
2017-08-12T19:54:46.735Z,11.20
2017-08-12T19:57:14.144Z,10.43
2017-08-12T19:59:41.655Z,8.47
2017-08-12T20:02:09.058Z,8.60
2017-08-12T20:04:36.507Z,8.20
2017-08-12T20:07:03.907Z,8.93
2017-08-12T20:09:31.291Z,8.23
2017-08-12T20:11:58.692Z,9.47
2017-08-12T20:14:26.372Z,8.80
2017-08-12T20:16:53.768Z,7.70
2017-08-12T20:19:21.155Z,13.87
2017-08-12T20:21:48.858Z,14.90
2017-08-12T20:24:16.727Z,9.97
2017-08-12T20:26:44.150Z,10.03
2017-08-12T20:29:11.582Z,14.80
2017-08-12T20:31:38.968Z,11.43
2017-08-12T20:34:06.361Z,11.27
2017-08-12T20:36:33.864Z,11.03
2017-08-12T20:39:01.255Z,10.00
2017-08-12T20:41:28.654Z,10.13
2017-08-12T20:43:56.103Z,9.30
2017-08-12T20:46:23.538Z,8.10
2017-08-12T20:48:50.941Z,11.57
2017-08-12T20:51:18.400Z,8.33
2017-08-12T20:53:46.102Z,9.90
2017-08-12T20:56:13.492Z,11.30
2017-08-12T20:58:40.889Z,10.10
2017-08-12T21:01:08.275Z,8.37
2017-08-12T21:03:35.675Z,14.17
2017-08-12T21:06:03.090Z,11.30
2017-08-12T21:08:30.490Z,12.63
2017-08-12T21:10:57.886Z,11.70
2017-08-12T21:13:25.286Z,13.00
2017-08-12T21:15:52.679Z,10.90
2017-08-12T21:18:20.086Z,9.50
2017-08-12T21:20:47.475Z,11.03
2017-08-12T21:23:14.874Z,10.97
2017-08-12T21:25:42.275Z,11.77
2017-08-12T21:28:09.680Z,14.10
2017-08-12T21:30:37.083Z,16.03
2017-08-12T21:33:04.498Z,12.77
2017-08-12T21:35:31.892Z,19.20
2017-08-12T21:37:59.287Z,13.87
2017-08-12T21:40:26.694Z,13.80
2017-08-12T21:42:54.103Z,15.10
2017-08-12T21:45:21.734Z,14.57
2017-08-12T21:47:49.180Z,16.80
2017-08-12T21:50:16.580Z,14.30
2017-08-12T21:52:43.970Z,13.43
2017-08-12T21:55:11.370Z,12.90
2017-08-12T21:57:38.763Z,17.80
2017-08-12T22:00:06.162Z,17.33
2017-08-12T22:02:33.559Z,13.10
2017-08-12T22:05:01.056Z,11.60
2017-08-12T22:07:28.652Z,11.13
2017-08-12T22:09:56.047Z,14.77
2017-08-12T22:12:23.443Z,11.73
2017-08-12T22:14:50.846Z,12.50
2017-08-12T22:17:18.255Z,10.90
2017-08-12T22:19:45.659Z,11.80
2017-08-12T22:22:13.267Z,9.57
2017-08-12T22:24:40.663Z,11.07
2017-08-12T22:27:08.054Z,9.83
2017-08-12T22:29:35.438Z,9.60
2017-08-12T22:32:02.835Z,10.33
2017-08-12T22:34:30.229Z,17.80
2017-08-12T22:36:57.618Z,9.67
2017-08-12T22:39:25.002Z,18.13
2017-08-12T22:41:52.404Z,11.93
2017-08-12T22:44:19.789Z,9.03
2017-08-12T22:46:47.183Z,8.57
2017-08-12T22:49:14.582Z,8.70
2017-08-12T22:51:42.214Z,9.03
2017-08-12T22:54:09.603Z,8.57
2017-08-12T22:56:37.002Z,10.23
2017-08-12T22:59:04.407Z,7.60
2017-08-12T23:01:31.801Z,13.27
2017-08-12T23:03:59.197Z,9.50
2017-08-12T23:06:26.586Z,11.27
2017-08-12T23:08:53.979Z,10.67
2017-08-12T23:11:21.376Z,9.53
2017-08-12T23:13:48.768Z,14.30
2017-08-12T23:16:16.387Z,13.03
2017-08-12T23:18:43.772Z,6.93
2017-08-12T23:21:11.162Z,9.63
2017-08-12T23:23:38.552Z,13.33
2017-08-12T23:26:05.966Z,14.87
2017-08-12T23:28:33.356Z,10.60
2017-08-12T23:31:00.738Z,8.13
2017-08-12T23:33:28.147Z,12.17
2017-08-12T23:35:55.614Z,11.40
2017-08-12T23:38:23.007Z,8.70
2017-08-12T23:40:50.402Z,10.30
2017-08-12T23:43:17.795Z,11.43
2017-08-12T23:45:45.179Z,16.17
2017-08-12T23:48:12.596Z,7.83
2017-08-12T23:50:39.979Z,10.73
2017-08-12T23:53:07.370Z,8.40
2017-08-12T23:55:34.758Z,13.53
2017-08-12T23:58:02.159Z,9.37
